Time;durP1;ratioP1;P1;durP2;ratioP2;P2;SDS_P1;SDS_P2;PMS_P1;PMS_P2;Temp;Humidity;BMP_temperature;BMP_pressure;BME280_temperature;BME280_humidity;BME280_pressure;Samples;Min_cycle;Max_cycle;Signal;HPM_P1;HPM_P2
2022/08/25 00:00:41;;;;;;;1.52;0.75;;;;;;;;;;10487434;28;20044;-80
2022/08/25 00:05:46;;;;;;;1.75;0.85;;;;;;;;;;10488119;28;20245;-79
2022/08/25 00:10:49;;;;;;;1.65;0.85;;;;;;;;;;10486737;28;20063;-79
2022/08/25 00:15:52;;;;;;;0.85;0.70;;;;;;;;;;10488350;28;20049;-79
2022/08/25 00:20:57;;;;;;;1.00;0.90;;;;;;;;;;10485276;28;20068;-79
2022/08/25 00:26:02;;;;;;;1.10;0.68;;;;;;;;;;10484472;28;20500;-80
2022/08/25 00:31:06;;;;;;;2.28;0.88;;;;;;;;;;10486408;28;20060;-80
2022/08/25 00:36:12;;;;;;;1.05;0.88;;;;;;;;;;10484483;28;20049;-79
2022/08/25 00:41:21;;;;;;;2.10;1.02;;;;;;;;;;10485947;28;20079;-79
2022/08/25 00:46:29;;;;;;;1.40;0.90;;;;;;;;;;10486149;28;20049;-79
2022/08/25 00:51:41;;;;;;;2.22;1.30;;;;;;;;;;10486867;28;20063;-79
2022/08/25 00:56:46;;;;;;;1.85;0.70;;;;;;;;;;10485038;28;20045;-79
2022/08/25 01:01:50;;;;;;;0.82;0.73;;;;;;;;;;10486963;28;20048;-80
2022/08/25 01:06:56;;;;;;;1.48;0.77;;;;;;;;;;10484908;28;20450;-79
2022/08/25 01:11:59;;;;;;;1.50;0.88;;;;;;;;;;10486093;28;20045;-79
2022/08/25 01:17:05;;;;;;;0.77;0.70;;;;;;;;;;10485650;28;20660;-79
2022/08/25 01:22:10;;;;;;;0.83;0.83;;;;;;;;;;10479902;28;20064;-79
2022/08/25 01:27:14;;;;;;;3.05;0.80;;;;;;;;;;10487297;28;20082;-78
2022/08/25 01:32:18;;;;;;;0.98;0.90;;;;;;;;;;10484572;28;21847;-79
2022/08/25 01:37:22;;;;;;;2.40;1.13;;;;;;;;;;10483899;28;20483;-79
2022/08/25 01:42:41;;;;;;;1.35;0.70;;;;;;;;;;10487774;28;20044;-78
2022/08/25 01:47:45;;;;;;;0.73;0.70;;;;;;;;;;10487594;28;20119;-78
2022/08/25 01:52:55;;;;;;;1.10;0.80;;;;;;;;;;10486443;28;20114;-79
2022/08/25 01:57:59;;;;;;;0.88;0.70;;;;;;;;;;10478557;28;20045;-78
2022/08/25 02:03:02;;;;;;;0.80;0.80;;;;;;;;;;10483697;28;20082;-79
2022/08/25 02:08:07;;;;;;;0.60;0.60;;;;;;;;;;10483406;28;20056;-79
2022/08/25 02:13:11;;;;;;;1.17;0.70;;;;;;;;;;10485655;28;20862;-79
2022/08/25 02:18:15;;;;;;;1.05;0.77;;;;;;;;;;10485014;28;20040;-78
2022/08/25 02:23:19;;;;;;;1.50;0.80;;;;;;;;;;10487236;28;20041;-78
2022/08/25 02:28:23;;;;;;;0.60;0.60;;;;;;;;;;10492292;28;20044;-77
2022/08/25 02:33:26;;;;;;;1.08;0.80;;;;;;;;;;10492211;28;20166;-78
2022/08/25 02:38:31;;;;;;;1.00;0.75;;;;;;;;;;10489276;28;20044;-78
2022/08/25 02:43:35;;;;;;;1.58;0.90;;;;;;;;;;10489289;28;20045;-77
2022/08/25 02:48:39;;;;;;;0.95;0.70;;;;;;;;;;10490913;28;20075;-79
2022/08/25 02:53:44;;;;;;;2.60;0.80;;;;;;;;;;10490263;28;20106;-79
2022/08/25 02:58:48;;;;;;;1.50;0.70;;;;;;;;;;10504843;28;20389;-78
2022/08/25 03:03:53;;;;;;;0.65;0.65;;;;;;;;;;10490415;28;20051;-78
2022/08/25 03:08:58;;;;;;;1.50;0.73;;;;;;;;;;10488783;28;20068;-78
2022/08/25 03:14:02;;;;;;;1.80;0.68;;;;;;;;;;10488261;28;20090;-79
2022/08/25 03:19:05;;;;;;;1.75;0.80;;;;;;;;;;10487287;28;20056;-78
2022/08/25 03:24:10;;;;;;;0.75;0.73;;;;;;;;;;10486987;28;20136;-78
2022/08/25 03:29:14;;;;;;;1.50;1.00;;;;;;;;;;10487462;28;20067;-78
2022/08/25 03:34:19;;;;;;;1.33;0.90;;;;;;;;;;10485320;28;20051;-79
2022/08/25 03:39:25;;;;;;;1.23;0.90;;;;;;;;;;10488273;28;20041;-78
2022/08/25 03:44:29;;;;;;;2.35;0.75;;;;;;;;;;10488849;28;20064;-78
2022/08/25 03:49:32;;;;;;;1.60;0.82;;;;;;;;;;10490909;28;20040;-78
2022/08/25 03:54:37;;;;;;;0.88;0.80;;;;;;;;;;10490210;28;20131;-79
2022/08/25 03:59:40;;;;;;;2.17;0.90;;;;;;;;;;10490881;28;20507;-78
2022/08/25 04:04:44;;;;;;;1.95;0.80;;;;;;;;;;10489255;28;20082;-77
2022/08/25 04:09:48;;;;;;;1.50;0.90;;;;;;;;;;10489734;28;20060;-78
2022/08/25 04:14:52;;;;;;;1.70;1.08;;;;;;;;;;10486447;28;20051;-78
2022/08/25 04:19:56;;;;;;;2.15;1.13;;;;;;;;;;10490423;28;20447;-79
2022/08/25 04:25:01;;;;;;;1.10;1.00;;;;;;;;;;10480294;28;20045;-78
2022/08/25 04:30:05;;;;;;;1.20;0.90;;;;;;;;;;10483197;28;20071;-79
2022/08/25 04:35:09;;;;;;;2.05;0.82;;;;;;;;;;10483381;28;20336;-78
2022/08/25 04:40:14;;;;;;;2.03;1.00;;;;;;;;;;10483365;28;20508;-78
2022/08/25 04:45:18;;;;;;;1.40;0.95;;;;;;;;;;10497726;28;20041;-78
2022/08/25 04:50:21;;;;;;;1.55;0.95;;;;;;;;;;10479909;28;20064;-77
2022/08/25 04:55:26;;;;;;;1.05;0.70;;;;;;;;;;10485302;28;20062;-79
2022/08/25 05:00:29;;;;;;;1.13;1.02;;;;;;;;;;10487333;28;20045;-78
2022/08/25 05:05:35;;;;;;;1.58;1.00;;;;;;;;;;10488284;28;20040;-78
2022/08/25 05:10:41;;;;;;;1.10;0.80;;;;;;;;;;10488261;28;20044;-79
2022/08/25 05:15:52;;;;;;;1.42;0.82;;;;;;;;;;10487801;28;20053;-79
2022/08/25 05:21:01;;;;;;;2.22;1.00;;;;;;;;;;10487438;28;20048;-79
2022/08/25 05:26:09;;;;;;;1.20;0.85;;;;;;;;;;10486299;28;20113;-77
2022/08/25 05:31:14;;;;;;;1.55;1.00;;;;;;;;;;10486410;28;20040;-79
2022/08/25 05:36:18;;;;;;;0.80;0.70;;;;;;;;;;10487309;28;20123;-79
2022/08/25 05:41:27;;;;;;;1.30;0.95;;;;;;;;;;10485865;28;20063;-78
2022/08/25 05:46:30;;;;;;;1.73;0.90;;;;;;;;;;10484717;28;20048;-79
2022/08/25 05:51:33;;;;;;;1.27;1.10;;;;;;;;;;10487213;28;20488;-79
2022/08/25 05:56:38;;;;;;;1.08;0.90;;;;;;;;;;10488533;28;20063;-79
2022/08/25 06:07:03;;;;;;;1.50;0.80;;;;;;;;;;10494881;28;20086;-77
2022/08/25 06:12:08;;;;;;;0.77;0.73;;;;;;;;;;10493251;28;20067;-78
2022/08/25 06:17:11;;;;;;;2.05;0.80;;;;;;;;;;10492744;28;20064;-78
2022/08/25 06:22:15;;;;;;;1.20;0.90;;;;;;;;;;10493294;28;20051;-76
2022/08/25 06:27:20;;;;;;;0.73;0.70;;;;;;;;;;10492364;28;20600;-78
2022/08/25 06:32:23;;;;;;;1.70;0.85;;;;;;;;;;10493389;28;20041;-79
2022/08/25 06:37:26;;;;;;;1.42;0.77;;;;;;;;;;10492270;28;20041;-79
2022/08/25 06:42:31;;;;;;;0.85;0.60;;;;;;;;;;10491068;28;20063;-79
2022/08/25 06:47:35;;;;;;;2.08;1.00;;;;;;;;;;10492483;28;20044;-79
2022/08/25 06:52:38;;;;;;;1.35;0.90;;;;;;;;;;10491192;28;20056;-77
2022/08/25 06:57:43;;;;;;;1.65;0.70;;;;;;;;;;10492095;28;20075;-78
2022/08/25 07:02:46;;;;;;;3.00;1.33;;;;;;;;;;10490598;28;20040;-80
2022/08/25 07:07:50;;;;;;;5.15;1.63;;;;;;;;;;10486310;28;20052;-81
2022/08/25 07:12:55;;;;;;;10.32;2.30;;;;;;;;;;10484389;28;20094;-80
2022/08/25 07:17:59;;;;;;;7.40;1.30;;;;;;;;;;10485598;28;20053;-76
2022/08/25 07:23:02;;;;;;;8.13;1.60;;;;;;;;;;10484447;28;20125;-79
2022/08/25 07:28:07;;;;;;;3.28;1.38;;;;;;;;;;10486566;28;20098;-80
2022/08/25 07:33:11;;;;;;;1.25;1.13;;;;;;;;;;10487498;28;20041;-78
2022/08/25 07:38:14;;;;;;;5.97;1.50;;;;;;;;;;10482717;28;20689;-79
2022/08/25 07:43:24;;;;;;;2.05;0.98;;;;;;;;;;10485426;28;20048;-79
2022/08/25 07:48:29;;;;;;;;;;;;;;;;;;10482709;28;20045;-80
2022/08/25 07:53:33;;;;;;;;;;;;;;;;;;10485257;28;19966;-78
2022/08/25 07:58:38;;;;;;;3.85;1.17;;;;;;;;;;10483591;28;19956;-80
2022/08/25 08:03:41;;;;;;;1.93;1.50;;;;;;;;;;10485510;28;20048;-81
2022/08/25 08:08:49;;;;;;;4.97;1.50;;;;;;;;;;10478426;28;20094;-81
2022/08/25 08:13:55;;;;;;;7.78;1.90;;;;;;;;;;10483810;28;20049;-80
2022/08/25 08:18:58;;;;;;;;;;;;;;;;;;10474229;28;20052;-78
2022/08/25 08:24:03;;;;;;;2.00;1.23;;;;;;;;;;10484440;28;19927;-78
2022/08/25 08:29:08;;;;;;;2.00;1.17;;;;;;;;;;10481239;28;20071;-77
2022/08/25 08:34:12;;;;;;;1.13;1.00;;;;;;;;;;10484208;28;20060;-80
2022/08/25 08:39:15;;;;;;;2.53;1.35;;;;;;;;;;10480168;28;20060;-79
2022/08/25 08:44:26;;;;;;;2.95;2.15;;;;;;;;;;10482961;28;20076;-77
2022/08/25 08:49:37;;;;;;;3.15;2.60;;;;;;;;;;10479559;28;20440;-78
2022/08/25 08:54:42;;;;;;;3.83;2.75;;;;;;;;;;10479660;28;20048;-79
2022/08/25 08:59:50;;;;;;;3.25;2.03;;;;;;;;;;10476788;28;20463;-80
2022/08/25 09:04:56;;;;;;;1.98;1.75;;;;;;;;;;10482047;28;20048;-79
2022/08/25 09:10:00;;;;;;;2.10;1.70;;;;;;;;;;10473002;28;20584;-80
2022/08/25 09:15:13;;;;;;;3.42;1.60;;;;;;;;;;10481623;28;20098;-78
2022/08/25 09:20:39;;;;;;;3.00;1.92;;;;;;;;;;10481267;28;20110;-76
2022/08/25 09:25:51;;;;;;;2.55;1.88;;;;;;;;;;10481954;28;20060;-79
2022/08/25 09:31:00;;;;;;;1.52;1.23;;;;;;;;;;10480120;28;20746;-80
2022/08/25 09:36:05;;;;;;;4.55;2.35;;;;;;;;;;10473768;28;20106;-80
2022/08/25 09:41:10;;;;;;;1.50;1.10;;;;;;;;;;10481886;28;20049;-80
2022/08/25 09:46:16;;;;;;;1.58;1.48;;;;;;;;;;10481834;28;20040;-79
2022/08/25 09:51:25;;;;;;;1.48;1.30;;;;;;;;;;10480256;28;20648;-80
2022/08/25 09:56:31;;;;;;;1.73;1.60;;;;;;;;;;10481875;28;20113;-78
2022/08/25 10:01:49;;;;;;;1.35;1.25;;;;;;;;;;10482421;28;20492;-79
2022/08/25 10:06:53;;;;;;;1.50;1.27;;;;;;;;;;10481479;28;20706;-80
2022/08/25 10:11:59;;;;;;;2.22;1.10;;;;;;;;;;10480364;28;20059;-78
2022/08/25 10:17:16;;;;;;;1.67;1.27;;;;;;;;;;10481796;28;20090;-79
2022/08/25 10:22:31;;;;;;;1.63;1.30;;;;;;;;;;10497510;28;20048;-80
2022/08/25 10:27:40;;;;;;;1.50;1.35;;;;;;;;;;10481678;28;20036;-80
2022/08/25 10:33:05;;;;;;;1.30;1.17;;;;;;;;;;10484361;28;20044;-80
2022/08/25 10:38:12;;;;;;;;;;;;;;;;;;10483425;28;20051;-79
2022/08/25 10:43:22;;;;;;;1.38;1.27;;;;;;;;;;10488668;28;19950;-78
2022/08/25 10:48:51;;;;;;;2.20;1.27;;;;;;;;;;10492456;28;20040;-79
2022/08/25 10:54:00;;;;;;;1.30;1.13;;;;;;;;;;10488797;28;20078;-79
2022/08/25 10:59:28;;;;;;;1.70;1.50;;;;;;;;;;10488892;28;20136;-79
2022/08/25 11:04:38;;;;;;;1.75;1.40;;;;;;;;;;10490308;28;20052;-79
2022/08/25 11:09:44;;;;;;;2.45;1.15;;;;;;;;;;10490278;28;20090;-78
2022/08/25 11:14:55;;;;;;;1.52;1.40;;;;;;;;;;10488569;28;20045;-79
2022/08/25 11:20:05;;;;;;;1.60;1.48;;;;;;;;;;10482234;28;20049;-79
2022/08/25 11:25:14;;;;;;;2.05;1.67;;;;;;;;;;10491980;28;20593;-80
2022/08/25 11:30:19;;;;;;;1.48;1.38;;;;;;;;;;10492893;28;20051;-80
2022/08/25 11:35:31;;;;;;;2.28;2.03;;;;;;;;;;10492919;28;20044;-77
2022/08/25 11:40:47;;;;;;;1.80;1.38;;;;;;;;;;10488912;28;20086;-77
2022/08/25 11:46:01;;;;;;;2.22;1.80;;;;;;;;;;10489197;28;20063;-77
2022/08/25 11:51:08;;;;;;;1.20;1.10;;;;;;;;;;10488621;28;20095;-77
2022/08/25 11:56:30;;;;;;;1.60;1.50;;;;;;;;;;10486996;28;20056;-77
2022/08/25 12:02:10;;;;;;;2.55;1.65;;;;;;;;;;10487966;28;20291;-76
2022/08/25 12:07:21;;;;;;;1.85;1.50;;;;;;;;;;10485526;28;20048;-77
2022/08/25 12:12:38;;;;;;;2.00;0.90;;;;;;;;;;10484965;28;20093;-77
2022/08/25 12:17:42;;;;;;;1.90;1.38;;;;;;;;;;10485575;28;20049;-77
2022/08/25 12:22:57;;;;;;;;;;;;;;;;;;10486065;28;20048;-78
2022/08/25 12:28:06;;;;;;;3.90;2.00;;;;;;;;;;10484975;28;20311;-77
2022/08/25 12:33:16;;;;;;;3.10;1.60;;;;;;;;;;10484237;28;20052;-77
2022/08/25 12:38:30;;;;;;;2.10;1.70;;;;;;;;;;10484959;28;20044;-78
2022/08/25 12:43:39;;;;;;;2.33;1.60;;;;;;;;;;10484345;28;20068;-78
2022/08/25 12:48:57;;;;;;;1.52;1.40;;;;;;;;;;10444965;28;20096;-78
2022/08/25 12:54:16;;;;;;;1.95;1.77;;;;;;;;;;10439267;28;20045;-78
2022/08/25 12:59:22;;;;;;;7.13;1.55;;;;;;;;;;10441683;28;20049;-78
2022/08/25 13:05:01;;;;;;;2.03;1.40;;;;;;;;;;10441093;28;20696;-77
2022/08/25 13:10:24;;;;;;;2.75;1.90;;;;;;;;;;10398542;28;20045;-77
2022/08/25 13:15:34;;;;;;;1.98;1.70;;;;;;;;;;10440209;28;20044;-77
2022/08/25 13:20:37;;;;;;;1.80;1.65;;;;;;;;;;10439184;28;20049;-77
2022/08/25 13:25:50;;;;;;;1.57;1.20;;;;;;;;;;10438243;28;20083;-77
2022/08/25 13:30:58;;;;;;;1.92;1.40;;;;;;;;;;10437601;28;20752;-78
2022/08/25 13:41:26;;;;;;;1.70;1.60;;;;;;;;;;10438009;28;20308;-77
2022/08/25 13:46:30;;;;;;;1.92;1.55;;;;;;;;;;10438411;28;20079;-76
2022/08/25 13:51:34;;;;;;;2.20;1.58;;;;;;;;;;10442450;28;20094;-78
2022/08/25 13:56:41;;;;;;;1.83;1.60;;;;;;;;;;10443480;28;20076;-77
2022/08/25 14:01:47;;;;;;;1.40;1.30;;;;;;;;;;10441007;28;20037;-77
2022/08/25 14:07:07;;;;;;;1.50;1.40;;;;;;;;;;10444098;28;20128;-78
2022/08/25 14:12:27;;;;;;;1.45;1.35;;;;;;;;;;10437788;28;20135;-78
2022/08/25 14:17:31;;;;;;;1.60;1.50;;;;;;;;;;10442039;28;20481;-78
2022/08/25 14:22:38;;;;;;;1.77;1.60;;;;;;;;;;10450682;28;20052;-78
2022/08/25 14:27:53;;;;;;;3.65;1.92;;;;;;;;;;10455024;28;20139;-77
2022/08/25 14:33:13;;;;;;;1.60;1.35;;;;;;;;;;10454024;28;20837;-79
2022/08/25 14:38:18;;;;;;;2.28;1.65;;;;;;;;;;10449367;28;20570;-79
2022/08/25 14:43:23;;;;;;;;;;;;;;;;;;10451119;28;20061;-79
2022/08/25 14:48:30;;;;;;;3.92;1.88;;;;;;;;;;10448538;28;19966;-79
2022/08/25 14:53:34;;;;;;;2.15;1.98;;;;;;;;;;10450735;28;20118;-79
2022/08/25 14:58:39;;;;;;;2.33;1.73;;;;;;;;;;10449548;28;20072;-79
2022/08/25 15:09:21;;;;;;;3.20;1.88;;;;;;;;;;10079250;23;20050;-81
2022/08/25 15:14:25;;;;;;;5.05;2.20;;;;;;;;;;10012844;29;20065;-79
2022/08/25 15:19:29;;;;;;;2.50;2.28;;;;;;;;;;9971524;29;20043;-79
2022/08/25 15:24:33;;;;;;;3.40;2.20;;;;;;;;;;9987171;29;20084;-79
2022/08/25 15:29:41;;;;;;;2.00;1.60;;;;;;;;;;9977785;29;20064;-79
2022/08/25 15:34:44;;;;;;;1.80;1.30;;;;;;;;;;9977567;29;20051;-79
2022/08/25 15:39:48;;;;;;;3.40;1.95;;;;;;;;;;9982907;29;20046;-79
2022/08/25 15:44:53;;;;;;;2.58;1.45;;;;;;;;;;9971039;29;20123;-80
2022/08/25 15:50:04;;;;;;;1.58;1.48;;;;;;;;;;9971422;29;20162;-80
2022/08/25 15:55:09;;;;;;;1.65;1.55;;;;;;;;;;9986627;29;20596;-80
2022/08/25 16:00:15;;;;;;;1.80;1.60;;;;;;;;;;9985008;29;20074;-79
2022/08/25 16:05:19;;;;;;;2.45;1.80;;;;;;;;;;9981335;29;20070;-79
2022/08/25 16:10:26;;;;;;;1.75;1.60;;;;;;;;;;9981630;29;20058;-79
2022/08/25 16:15:31;;;;;;;2.65;1.75;;;;;;;;;;9984254;29;20046;-79
2022/08/25 16:20:36;;;;;;;2.63;1.70;;;;;;;;;;9989084;29;20081;-79
2022/08/25 16:25:41;;;;;;;2.03;1.63;;;;;;;;;;9993097;29;20141;-79
2022/08/25 16:30:52;;;;;;;1.77;1.60;;;;;;;;;;9972429;29;20058;-79
2022/08/25 16:36:06;;;;;;;1.80;1.33;;;;;;;;;;9988921;29;20043;-80
2022/08/25 16:41:12;;;;;;;1.57;1.20;;;;;;;;;;9953848;29;20072;-80
2022/08/25 16:46:19;;;;;;;1.85;1.55;;;;;;;;;;9973782;29;20507;-80
2022/08/25 16:51:22;;;;;;;2.45;1.50;;;;;;;;;;9985860;29;20407;-80
2022/08/25 16:56:27;;;;;;;1.85;1.63;;;;;;;;;;9987321;29;20075;-80
2022/08/25 17:01:34;;;;;;;1.90;1.52;;;;;;;;;;9957790;29;20223;-80
2022/08/25 17:06:43;;;;;;;1.45;1.35;;;;;;;;;;9985579;29;20815;-80
2022/08/25 17:11:48;;;;;;;2.15;1.25;;;;;;;;;;9970155;29;20061;-80
2022/08/25 17:16:54;;;;;;;1.50;1.40;;;;;;;;;;9972216;29;20054;-80
2022/08/25 17:21:59;;;;;;;2.42;1.35;;;;;;;;;;9982210;29;20145;-80
2022/08/25 17:27:02;;;;;;;1.75;1.23;;;;;;;;;;9972129;29;20050;-80
2022/08/25 17:32:08;;;;;;;1.30;1.20;;;;;;;;;;9974487;29;20054;-80
2022/08/25 17:37:12;;;;;;;1.30;1.20;;;;;;;;;;9970689;29;20046;-79
2022/08/25 17:42:16;;;;;;;1.42;1.33;;;;;;;;;;9967755;29;20118;-80
2022/08/25 17:47:20;;;;;;;1.45;1.35;;;;;;;;;;9971792;29;20054;-79
2022/08/25 17:52:27;;;;;;;1.30;1.00;;;;;;;;;;9967529;29;20053;-79
2022/08/25 17:57:31;;;;;;;1.73;1.35;;;;;;;;;;9976524;29;20117;-80
2022/08/25 18:02:41;;;;;;;1.75;1.30;;;;;;;;;;9975877;29;20060;-79
2022/08/25 18:07:48;;;;;;;2.50;1.45;;;;;;;;;;9992923;29;20065;-86
2022/08/25 18:12:57;;;;;;;1.25;1.15;;;;;;;;;;9989155;29;20068;-81
2022/08/25 18:18:02;;;;;;;1.50;1.25;;;;;;;;;;9973081;29;20054;-80
2022/08/25 18:23:07;;;;;;;3.53;1.88;;;;;;;;;;9989021;29;20111;-82
2022/08/25 18:28:15;;;;;;;2.00;1.60;;;;;;;;;;9973134;29;20126;-87
2022/08/25 18:33:19;;;;;;;2.50;1.52;;;;;;;;;;9973694;29;20115;-80
2022/08/25 18:43:45;;;;;;;1.52;1.42;;;;;;;;;;9973809;29;20050;-79
2022/08/25 18:48:50;;;;;;;2.22;1.60;;;;;;;;;;9973022;29;20749;-79
2022/08/25 18:53:54;;;;;;;2.25;1.60;;;;;;;;;;9974776;29;20042;-79
2022/08/25 18:58:57;;;;;;;1.58;1.42;;;;;;;;;;9973008;29;20174;-79
2022/08/25 19:04:03;;;;;;;3.13;1.80;;;;;;;;;;9972655;29;20053;-79
2022/08/25 19:09:07;;;;;;;3.15;1.85;;;;;;;;;;9968395;29;20058;-80
2022/08/25 19:14:12;;;;;;;1.83;1.65;;;;;;;;;;9978830;29;20043;-80
2022/08/25 19:19:17;;;;;;;3.95;2.00;;;;;;;;;;9972399;29;20050;-79
2022/08/25 19:24:21;;;;;;;2.80;1.50;;;;;;;;;;9991074;29;20042;-79
2022/08/25 19:29:25;;;;;;;3.22;1.75;;;;;;;;;;9973189;29;20063;-79
2022/08/25 19:34:38;;;;;;;2.55;1.95;;;;;;;;;;9972364;29;20096;-79
2022/08/25 19:39:47;;;;;;;2.75;1.95;;;;;;;;;;9974131;29;20556;-79
2022/08/25 19:44:51;;;;;;;2.80;1.90;;;;;;;;;;9973032;29;20050;-79
2022/08/25 19:49:57;;;;;;;1.83;1.60;;;;;;;;;;9972595;29;20046;-79
2022/08/25 19:55:01;;;;;;;1.98;1.50;;;;;;;;;;9974140;29;20115;-79
2022/08/25 20:00:06;;;;;;;1.60;1.45;;;;;;;;;;9973257;29;20582;-79
2022/08/25 20:05:16;;;;;;;2.10;1.63;;;;;;;;;;9972980;29;20046;-79
2022/08/25 20:10:22;;;;;;;1.60;1.50;;;;;;;;;;9986828;29;20480;-79
2022/08/25 20:15:27;;;;;;;2.33;1.45;;;;;;;;;;9983781;29;20573;-74
2022/08/25 20:20:33;;;;;;;3.00;1.90;;;;;;;;;;9969222;29;20066;-81
2022/08/25 20:25:36;;;;;;;2.50;1.77;;;;;;;;;;9975461;29;20061;-80
2022/08/25 20:30:44;;;;;;;1.98;1.60;;;;;;;;;;9971755;29;20046;-78
2022/08/25 20:35:49;;;;;;;2.00;1.63;;;;;;;;;;9971155;29;20430;-79
2022/08/25 20:40:54;;;;;;;2.07;1.53;;;;;;;;;;9984605;29;20055;-79
2022/08/25 20:46:02;;;;;;;2.00;1.67;;;;;;;;;;9983429;29;20300;-78
2022/08/25 20:51:09;;;;;;;2.25;1.77;;;;;;;;;;9969384;29;20855;-78
2022/08/25 20:56:14;;;;;;;2.10;1.60;;;;;;;;;;9969425;29;20428;-80
2022/08/25 21:01:20;;;;;;;4.45;1.63;;;;;;;;;;9980476;29;20062;-78
2022/08/25 21:06:25;;;;;;;4.47;2.30;;;;;;;;;;9968261;29;20059;-78
2022/08/25 21:11:29;;;;;;;2.45;1.52;;;;;;;;;;9967678;29;20050;-79
2022/08/25 21:16:33;;;;;;;2.00;1.80;;;;;;;;;;9973580;29;20053;-77
2022/08/25 21:21:40;;;;;;;2.42;1.77;;;;;;;;;;9980655;29;20084;-79
2022/08/25 21:26:46;;;;;;;2.80;1.60;;;;;;;;;;9969320;29;20058;-78
2022/08/25 21:31:50;;;;;;;1.77;1.58;;;;;;;;;;9969272;29;20470;-77
2022/08/25 21:36:56;;;;;;;1.73;1.58;;;;;;;;;;9968778;29;20070;-77
2022/08/25 21:42:02;;;;;;;2.33;1.77;;;;;;;;;;9983034;29;20106;-79
2022/08/25 21:47:05;;;;;;;;;;;;;;;;;;9983185;29;20042;-76
2022/08/25 21:52:10;;;;;;;2.00;1.58;;;;;;;;;;9968691;29;19929;-78
2022/08/25 21:57:15;;;;;;;1.98;1.60;;;;;;;;;;9967074;29;20634;-80
2022/08/25 22:02:19;;;;;;;3.47;1.50;;;;;;;;;;9965985;29;20062;-78
2022/08/25 22:07:26;;;;;;;;;;;;;;;;;;9964908;29;22258;-79
2022/08/25 22:12:29;;;;;;;2.80;1.73;;;;;;;;;;9966318;29;19924;-79
2022/08/25 22:17:34;;;;;;;2.08;1.80;;;;;;;;;;9972250;29;20042;-79
2022/08/25 22:22:39;;;;;;;2.30;1.95;;;;;;;;;;9981264;29;20054;-78
2022/08/25 22:27:45;;;;;;;2.22;1.85;;;;;;;;;;9967258;29;20058;-78
2022/08/25 22:32:48;;;;;;;2.78;2.05;;;;;;;;;;9966516;29;20414;-80
2022/08/25 22:37:55;;;;;;;2.22;1.85;;;;;;;;;;9966182;29;20546;-76
2022/08/25 22:42:58;;;;;;;2.20;2.00;;;;;;;;;;9972773;29;20050;-79
2022/08/25 22:48:02;;;;;;;2.00;1.70;;;;;;;;;;9972968;29;20042;-80
2022/08/25 22:53:07;;;;;;;3.05;2.17;;;;;;;;;;9980389;29;20115;-77
2022/08/25 22:58:13;;;;;;;2.03;1.70;;;;;;;;;;9973463;29;20263;-80
2022/08/25 23:03:16;;;;;;;2.53;1.88;;;;;;;;;;9988259;29;20070;-79
2022/08/25 23:08:22;;;;;;;2.38;1.90;;;;;;;;;;9973819;29;20054;-78
2022/08/25 23:13:26;;;;;;;2.95;2.47;;;;;;;;;;9973994;29;20056;-78
2022/08/25 23:18:30;;;;;;;2.30;2.00;;;;;;;;;;9974747;29;20481;-77
2022/08/25 23:23:36;;;;;;;2.03;1.70;;;;;;;;;;9974302;29;20042;-78
2022/08/25 23:28:42;;;;;;;2.13;1.77;;;;;;;;;;9988534;29;20134;-78
2022/08/25 23:33:46;;;;;;;3.60;2.33;;;;;;;;;;9973843;29;20146;-78
2022/08/25 23:38:53;;;;;;;3.33;1.90;;;;;;;;;;9973726;29;20129;-78
2022/08/25 23:43:56;;;;;;;2.13;1.60;;;;;;;;;;9971099;29;20047;-78
2022/08/25 23:48:59;;;;;;;2.58;1.88;;;;;;;;;;9972114;29;20081;-78
2022/08/25 23:54:10;;;;;;;2.90;1.58;;;;;;;;;;9971991;29;20046;-78
2022/08/25 23:59:14;;;;;;;3.05;2.13;;;;;;;;;;9986464;29;20050;-78
